Time;durP1;ratioP1;P1;durP2;ratioP2;P2;SDS_P1;SDS_P2;PMS_P1;PMS_P2;Temp;Humidity;BMP_temperature;BMP_pressure;BME280_temperature;BME280_humidity;BME280_pressure;Samples;Min_cycle;Max_cycle;Signal;HPM_P1;HPM_P2
2021/11/05 00:00:19;;;;;;;5.45;4.95;;;6.20;99.90;;;;;;5005251;28;20676;-89
2021/11/05 00:02:45;;;;;;;5.68;5.07;;;6.20;99.90;;;;;;5005152;28;20194;-90
2021/11/05 00:05:10;;;;;;;5.03;4.63;;;6.10;99.90;;;;;;5007105;28;20180;-89
2021/11/05 00:07:37;;;;;;;6.03;5.43;;;6.30;99.90;;;;;;5003577;28;20187;-90
2021/11/05 00:10:05;;;;;;;6.70;6.10;;;6.00;99.90;;;;;;5006539;28;20431;-90
2021/11/05 00:12:30;;;;;;;6.07;5.20;;;6.00;99.90;;;;;;5005004;28;20749;-89
2021/11/05 00:14:56;;;;;;;5.63;5.10;;;6.10;99.90;;;;;;5010002;28;20330;-88
2021/11/05 00:17:21;;;;;;;6.10;5.50;;;5.90;99.90;;;;;;5008102;28;20805;-89
2021/11/05 00:19:47;;;;;;;6.40;5.80;;;6.00;99.90;;;;;;5006703;28;20669;-89
2021/11/05 00:22:13;;;;;;;6.17;5.57;;;6.00;99.90;;;;;;5007148;28;20215;-89
2021/11/05 00:24:38;;;;;;;6.63;6.07;;;6.10;99.90;;;;;;5009942;28;20194;-89
2021/11/05 00:27:04;;;;;;;6.97;6.27;;;5.70;99.90;;;;;;5014119;28;20215;-89
2021/11/05 00:29:29;;;;;;;8.40;6.27;;;5.90;99.90;;;;;;5004758;28;20192;-89
2021/11/05 00:31:55;;;;;;;6.17;5.57;;;6.10;99.90;;;;;;5008269;28;20992;-90
2021/11/05 00:34:20;;;;;;;5.93;5.33;;;6.00;99.90;;;;;;5005290;28;20256;-89
2021/11/05 00:36:47;;;;;;;7.50;6.20;;;5.80;99.90;;;;;;5008320;28;20208;-89
2021/11/05 00:39:13;;;;;;;6.28;5.68;;;5.90;99.90;;;;;;5009356;28;20176;-88
2021/11/05 00:41:38;;;;;;;6.43;5.70;;;5.70;99.90;;;;;;5006812;28;20184;-89
2021/11/05 00:44:04;;;;;;;7.00;5.57;;;5.90;99.90;;;;;;5005759;28;20188;-89
2021/11/05 00:46:30;;;;;;;7.10;6.40;;;5.80;99.90;;;;;;5004761;28;20279;-89
2021/11/05 00:48:57;;;;;;;6.97;5.73;;;6.00;99.90;;;;;;5004971;28;20465;-89
2021/11/05 00:51:23;;;;;;;6.78;6.07;;;6.00;99.90;;;;;;5008063;28;20196;-89
2021/11/05 00:53:48;;;;;;;6.40;5.70;;;6.10;99.90;;;;;;5009547;28;20204;-91
2021/11/05 00:56:15;;;;;;;7.13;6.47;;;5.90;99.90;;;;;;5004858;28;20454;-90
2021/11/05 00:58:41;;;;;;;6.07;5.47;;;6.10;99.90;;;;;;5004489;28;20183;-90
2021/11/05 01:01:06;;;;;;;6.33;5.67;;;5.90;99.90;;;;;;5005616;28;20962;-89
2021/11/05 01:03:32;;;;;;;7.50;6.70;;;5.70;99.90;;;;;;4984906;28;20741;-89
2021/11/05 01:05:57;;;;;;;6.40;5.77;;;6.10;99.90;;;;;;4985026;28;20184;-89
2021/11/05 01:08:23;;;;;;;7.07;5.80;;;5.80;99.90;;;;;;4992563;28;20220;-88
2021/11/05 01:10:49;;;;;;;6.33;5.73;;;6.00;99.90;;;;;;5006228;28;20192;-89
2021/11/05 01:13:14;;;;;;;6.77;5.87;;;6.10;99.90;;;;;;5006456;28;20286;-89
2021/11/05 01:15:40;;;;;;;7.33;6.53;;;5.80;99.90;;;;;;5008966;28;20231;-89
2021/11/05 01:18:06;;;;;;;7.37;6.60;;;6.10;99.90;;;;;;5007876;28;20185;-89
2021/11/05 01:20:32;;;;;;;6.55;5.95;;;6.00;99.90;;;;;;5004458;28;20183;-89
2021/11/05 01:22:57;;;;;;;6.20;5.60;;;5.80;99.90;;;;;;5012085;28;20203;-88
2021/11/05 01:25:23;;;;;;;6.00;5.37;;;6.00;99.90;;;;;;5012057;28;20250;-90
2021/11/05 01:27:49;;;;;;;6.83;6.13;;;6.10;99.90;;;;;;5012419;28;20661;-88
2021/11/05 01:30:16;;;;;;;6.68;6.03;;;6.10;99.90;;;;;;5012228;28;20211;-89
2021/11/05 01:32:43;;;;;;;6.88;6.22;;;5.70;99.90;;;;;;5011076;28;20227;-89
2021/11/05 01:35:10;;;;;;;5.30;4.75;;;6.00;99.90;;;;;;5012411;28;20542;-90
2021/11/05 01:37:36;;;;;;;7.22;6.35;;;6.00;99.90;;;;;;5011738;28;20183;-90
2021/11/05 01:40:03;;;;;;;6.57;5.80;;;6.10;99.90;;;;;;5012042;28;20180;-87
2021/11/05 01:42:28;;;;;;;7.40;6.15;;;6.10;99.90;;;;;;5011831;28;20235;-89
2021/11/05 01:44:54;;;;;;;6.30;5.70;;;5.80;99.90;;;;;;5013155;28;20219;-90
2021/11/05 01:47:19;;;;;;;6.67;6.07;;;6.10;99.90;;;;;;5015530;28;20223;-89
2021/11/05 01:49:47;;;;;;;6.10;5.50;;;6.00;99.90;;;;;;5015991;28;20188;-89
2021/11/05 01:52:14;;;;;;;5.93;5.43;;;6.00;99.90;;;;;;5014532;28;20222;-90
2021/11/05 01:54:40;;;;;;;6.85;5.22;;;6.10;99.90;;;;;;5014431;28;20242;-90
2021/11/05 01:57:06;;;;;;;6.90;5.60;;;6.00;99.90;;;;;;5016124;28;20183;-90
2021/11/05 01:59:35;;;;;;;6.57;5.87;;;6.00;99.90;;;;;;5015627;28;20191;-89
2021/11/05 02:02:04;;;;;;;5.25;4.80;;;5.90;99.90;;;;;;5015363;28;20525;-90
2021/11/05 02:04:30;;;;;;;5.82;5.30;;;6.10;99.90;;;;;;5023037;28;20199;-88
2021/11/05 02:06:57;;;;;;;5.40;4.90;;;6.10;99.90;;;;;;5030977;28;20219;-87
2021/11/05 02:09:25;;;;;;;5.53;5.03;;;6.10;99.90;;;;;;5015567;28;20188;-88
2021/11/05 02:11:55;;;;;;;6.10;4.85;;;6.00;99.90;;;;;;4995840;28;20535;-89
2021/11/05 02:14:23;;;;;;;6.22;5.63;;;6.00;99.90;;;;;;5016212;28;20247;-89
2021/11/05 02:16:52;;;;;;;5.65;5.10;;;6.10;99.90;;;;;;5019580;28;20184;-89
2021/11/05 02:19:20;;;;;;;6.22;5.63;;;6.10;99.90;;;;;;5015080;28;20235;-88
2021/11/05 02:21:49;;;;;;;5.78;5.28;;;6.00;99.90;;;;;;5014360;28;20215;-87
2021/11/05 02:24:16;;;;;;;5.55;5.05;;;6.00;99.90;;;;;;5014448;28;20264;-87
2021/11/05 02:26:43;;;;;;;5.50;5.03;;;6.10;99.90;;;;;;5015620;28;20180;-92
2021/11/05 02:29:10;;;;;;;5.75;4.97;;;6.00;99.90;;;;;;5016101;28;20214;-91
2021/11/05 02:31:37;;;;;;;6.72;6.03;;;6.20;99.90;;;;;;5016681;28;20188;-93
2021/11/05 02:34:03;;;;;;;6.30;5.70;;;5.80;99.90;;;;;;5017824;28;20430;-94
2021/11/05 02:36:29;;;;;;;5.38;4.88;;;6.00;99.90;;;;;;5021695;28;20176;-94
2021/11/05 02:38:56;;;;;;;5.93;5.43;;;6.20;99.90;;;;;;5019574;28;20188;-91
2021/11/05 02:41:21;;;;;;;6.10;5.53;;;6.10;99.90;;;;;;5018747;28;20647;-93
2021/11/05 02:43:48;;;;;;;5.80;5.30;;;6.00;99.90;;;;;;5016927;28;20194;-92
2021/11/05 02:46:14;;;;;;;6.72;5.65;;;6.00;99.90;;;;;;5016614;28;20467;-92
2021/11/05 02:48:40;;;;;;;5.93;5.37;;;5.90;99.90;;;;;;5016530;28;20191;-93
2021/11/05 02:51:06;;;;;;;5.80;4.90;;;5.70;99.90;;;;;;5016025;28;20450;-92
2021/11/05 02:53:31;;;;;;;5.73;5.20;;;5.90;99.90;;;;;;5016264;28;20211;-92
2021/11/05 02:55:57;;;;;;;6.80;5.47;;;5.90;99.90;;;;;;5015826;28;20427;-92
2021/11/05 02:58:23;;;;;;;5.87;5.33;;;5.70;99.90;;;;;;5015911;28;20196;-92
2021/11/05 03:00:49;;;;;;;6.70;5.50;;;5.90;99.90;;;;;;5015579;28;20442;-93
2021/11/05 03:03:15;;;;;;;5.93;5.05;;;5.60;99.90;;;;;;5015507;28;20202;-92
2021/11/05 03:05:41;;;;;;;6.00;5.07;;;5.60;99.90;;;;;;5014587;28;20651;-94
2021/11/05 03:08:07;;;;;;;5.83;5.33;;;5.90;99.90;;;;;;5015416;28;20267;-93
2021/11/05 03:10:34;;;;;;;6.05;5.45;;;5.80;99.90;;;;;;5014942;28;20442;-91
2021/11/05 03:13:01;;;;;;;5.15;4.70;;;5.90;99.90;;;;;;5014925;28;20243;-92
2021/11/05 03:15:26;;;;;;;5.57;5.07;;;5.80;99.90;;;;;;5015091;28;20184;-92
2021/11/05 03:17:53;;;;;;;6.33;5.53;;;5.90;99.90;;;;;;5014739;28;20187;-92
2021/11/05 03:20:20;;;;;;;8.48;6.60;;;6.00;99.90;;;;;;5014937;28;20450;-91
2021/11/05 03:22:46;;;;;;;5.95;5.45;;;6.00;99.90;;;;;;5024376;28;20190;-91
2021/11/05 03:25:12;;;;;;;6.63;6.03;;;5.90;99.90;;;;;;5021220;28;20207;-92
2021/11/05 03:27:37;;;;;;;8.40;5.63;;;5.70;99.90;;;;;;5014884;28;20172;-92
2021/11/05 03:30:05;;;;;;;8.13;7.43;;;5.90;99.90;;;;;;5014814;28;20493;-92
2021/11/05 03:32:31;;;;;;;7.07;6.13;;;5.90;99.90;;;;;;5013906;28;20235;-92
2021/11/05 03:34:56;;;;;;;7.47;6.30;;;5.90;99.90;;;;;;5014579;28;20202;-92
2021/11/05 03:37:22;;;;;;;7.40;6.20;;;5.70;99.90;;;;;;5014023;28;20298;-93
2021/11/05 03:39:48;;;;;;;6.17;5.53;;;6.10;99.90;;;;;;5014287;28;20192;-92
2021/11/05 03:42:13;;;;;;;6.23;5.50;;;6.00;99.90;;;;;;5014814;28;20267;-92
2021/11/05 03:44:39;;;;;;;5.47;4.93;;;6.00;99.90;;;;;;5014160;28;20192;-93
2021/11/05 03:47:04;;;;;;;5.80;5.00;;;6.10;99.90;;;;;;5014241;28;20215;-94
2021/11/05 03:49:30;;;;;;;5.80;5.27;;;5.90;99.90;;;;;;5014934;28;20188;-92
2021/11/05 03:51:57;;;;;;;5.37;4.87;;;5.80;99.90;;;;;;5013581;28;20196;-92
2021/11/05 03:54:23;;;;;;;5.72;5.20;;;5.90;99.90;;;;;;5014612;28;20271;-93
2021/11/05 03:56:49;;;;;;;5.95;5.45;;;6.00;99.90;;;;;;5027166;23;20176;-70
2021/11/05 03:59:14;;;;;;;6.30;5.10;;;5.90;99.90;;;;;;4992063;28;20207;-70
2021/11/05 04:01:41;;;;;;;4.10;3.80;;;5.70;99.90;;;;;;4991785;28;20712;-69
2021/11/05 04:04:07;;;;;;;6.13;5.13;;;5.80;99.90;;;;;;4992135;28;20180;-70
2021/11/05 04:06:33;;;;;;;5.73;4.90;;;5.80;99.90;;;;;;4991801;28;20211;-71
2021/11/05 04:08:58;;;;;;;12.70;9.50;;;5.80;99.90;;;;;;4991640;28;20502;-70
2021/11/05 04:11:24;;;;;;;7.60;6.53;;;5.70;99.90;;;;;;4991053;28;20184;-70
2021/11/05 04:13:50;;;;;;;6.47;5.87;;;5.70;99.90;;;;;;4991314;28;20216;-70
2021/11/05 04:16:16;;;;;;;6.13;5.53;;;5.70;99.90;;;;;;4991460;28;20205;-72
2021/11/05 04:18:42;;;;;;;7.20;5.78;;;5.40;99.90;;;;;;4990854;28;20235;-70
2021/11/05 04:21:09;;;;;;;7.30;5.50;;;5.60;99.90;;;;;;4991818;28;20196;-71
2021/11/05 04:23:34;;;;;;;5.25;4.55;;;5.60;99.90;;;;;;4991081;28;20200;-70
2021/11/05 04:26:01;;;;;;;6.80;6.10;;;5.80;99.90;;;;;;4990974;28;20261;-70
2021/11/05 04:28:27;;;;;;;6.80;5.65;;;5.80;99.90;;;;;;4991605;28;20196;-70
2021/11/05 04:30:52;;;;;;;6.38;5.60;;;5.90;99.90;;;;;;4990834;28;20185;-69
2021/11/05 04:33:18;;;;;;;5.70;5.00;;;5.80;99.90;;;;;;5000058;28;20578;-70
2021/11/05 04:35:44;;;;;;;6.17;5.57;;;5.70;99.90;;;;;;5011317;28;20187;-71
2021/11/05 04:38:10;;;;;;;5.50;5.00;;;5.80;99.90;;;;;;5002633;28;20224;-70
2021/11/05 04:40:36;;;;;;;5.10;4.63;;;5.60;99.90;;;;;;4991127;28;20570;-71
2021/11/05 04:43:02;;;;;;;4.85;4.40;;;5.60;99.90;;;;;;4991295;28;20192;-71
2021/11/05 04:45:28;;;;;;;5.07;4.50;;;5.70;99.90;;;;;;4990259;28;20207;-70
2021/11/05 04:47:53;;;;;;;5.82;4.82;;;5.80;99.90;;;;;;4991361;28;20680;-71
2021/11/05 04:50:19;;;;;;;5.60;4.50;;;5.70;99.90;;;;;;4990608;28;20218;-70
2021/11/05 04:52:48;;;;;;;4.53;4.13;;;5.40;99.90;;;;;;4990532;28;20216;-71
2021/11/05 04:55:15;;;;;;;5.78;5.05;;;5.60;99.90;;;;;;4990397;28;20199;-70
2021/11/05 04:57:40;;;;;;;5.70;5.20;;;5.60;99.90;;;;;;4990774;28;20672;-70
2021/11/05 05:00:08;;;;;;;6.40;5.70;;;5.80;99.90;;;;;;4990452;28;20208;-71
2021/11/05 05:02:34;;;;;;;4.70;4.30;;;5.90;99.90;;;;;;4989358;28;20272;-71
2021/11/05 05:05:02;;;;;;;7.43;5.27;;;6.00;99.90;;;;;;4990064;28;20288;-70
2021/11/05 05:07:28;;;;;;;5.75;5.25;;;6.00;99.90;;;;;;4995230;28;20440;-71
2021/11/05 05:09:53;;;;;;;6.43;5.83;;;6.00;99.90;;;;;;4988263;28;20278;-71
2021/11/05 05:12:19;;;;;;;6.50;5.90;;;6.10;99.90;;;;;;4971439;28;20583;-70
2021/11/05 05:14:45;;;;;;;7.10;5.97;;;6.00;99.90;;;;;;4981171;28;20192;-71
2021/11/05 05:17:10;;;;;;;5.60;5.10;;;6.10;99.90;;;;;;4989761;28;20227;-70
2021/11/05 05:19:36;;;;;;;5.33;4.83;;;5.80;99.90;;;;;;4988873;28;20896;-70
2021/11/05 05:22:02;;;;;;;4.80;4.27;;;6.00;99.90;;;;;;4990543;28;20204;-73
2021/11/05 05:24:27;;;;;;;5.65;5.05;;;6.10;99.90;;;;;;4991081;28;20256;-70
2021/11/05 05:26:53;;;;;;;5.30;4.77;;;6.00;99.90;;;;;;4989606;28;20647;-70
2021/11/05 05:29:19;;;;;;;5.43;4.97;;;6.10;99.90;;;;;;4989290;28;20192;-70
2021/11/05 05:31:44;;;;;;;5.93;4.97;;;5.90;99.90;;;;;;4990279;28;20563;-71
2021/11/05 05:34:10;;;;;;;5.33;4.83;;;6.10;99.90;;;;;;4990558;28;20316;-71
2021/11/05 05:36:36;;;;;;;4.80;4.30;;;6.00;99.90;;;;;;4989559;28;20741;-72
2021/11/05 05:39:02;;;;;;;5.80;5.03;;;6.00;99.90;;;;;;4990675;28;20188;-70
2021/11/05 05:41:27;;;;;;;5.80;5.20;;;6.00;99.90;;;;;;4981942;28;20244;-71
2021/11/05 05:43:53;;;;;;;5.83;5.20;;;6.10;99.90;;;;;;4975052;28;20299;-71
2021/11/05 05:46:18;;;;;;;6.40;5.40;;;6.00;99.90;;;;;;4989379;28;20663;-71
2021/11/05 05:48:44;;;;;;;8.00;4.93;;;6.10;99.90;;;;;;4990380;28;20436;-72
2021/11/05 05:51:09;;;;;;;6.17;5.57;;;6.00;99.90;;;;;;4992536;28;20193;-71
2021/11/05 05:53:35;;;;;;;6.10;5.23;;;6.10;99.90;;;;;;4989777;28;20624;-71
2021/11/05 05:56:00;;;;;;;6.40;5.80;;;6.00;99.90;;;;;;4989451;28;20193;-71
2021/11/05 05:58:26;;;;;;;5.53;5.00;;;6.20;99.90;;;;;;4989138;28;20247;-73
2021/11/05 06:00:52;;;;;;;8.53;5.50;;;6.10;99.90;;;;;;4989918;28;20520;-71
2021/11/05 06:03:17;;;;;;;6.23;5.63;;;6.00;99.90;;;;;;4992375;28;20251;-71
2021/11/05 06:05:43;;;;;;;7.47;5.27;;;6.10;99.90;;;;;;4991292;28;20424;-71
2021/11/05 06:08:08;;;;;;;6.03;5.37;;;6.00;99.90;;;;;;4989899;28;20212;-71
2021/11/05 06:10:35;;;;;;;6.70;6.10;;;6.30;99.90;;;;;;4991262;28;20203;-71
2021/11/05 06:13:00;;;;;;;6.43;5.43;;;6.20;99.90;;;;;;4989946;28;20239;-71
2021/11/05 06:15:26;;;;;;;6.07;5.47;;;6.10;99.90;;;;;;4989672;28;20193;-71
2021/11/05 06:17:52;;;;;;;6.03;5.43;;;6.20;99.90;;;;;;4989269;28;20191;-71
2021/11/05 06:20:19;;;;;;;6.03;5.25;;;6.20;99.90;;;;;;4990551;28;20209;-72
2021/11/05 06:22:45;;;;;;;6.20;5.60;;;6.20;99.90;;;;;;4989724;28;20200;-71
2021/11/05 06:25:10;;;;;;;6.23;5.60;;;6.20;99.90;;;;;;4989990;28;20192;-72
2021/11/05 06:27:36;;;;;;;5.53;5.00;;;6.30;99.90;;;;;;4989978;28;20542;-71
2021/11/05 06:30:02;;;;;;;7.10;5.77;;;6.10;99.90;;;;;;4989730;28;20644;-72
2021/11/05 06:32:28;;;;;;;6.20;5.45;;;6.40;99.90;;;;;;4993422;28;20228;-72
2021/11/05 06:34:54;;;;;;;6.93;5.70;;;6.10;99.90;;;;;;4993092;28;20648;-72
2021/11/05 06:37:19;;;;;;;6.20;5.70;;;6.30;99.90;;;;;;4993877;28;20598;-71
2021/11/05 06:39:45;;;;;;;7.07;6.37;;;6.30;99.90;;;;;;4989382;28;20602;-73
2021/11/05 06:42:13;;;;;;;6.80;5.80;;;6.60;99.90;;;;;;4974425;28;20182;-71
2021/11/05 06:44:39;;;;;;;9.13;8.32;;;6.30;99.90;;;;;;4991830;28;20235;-72
2021/11/05 06:47:04;;;;;;;5.90;5.23;;;6.30;99.90;;;;;;4993475;28;20652;-71
2021/11/05 06:49:30;;;;;;;6.53;5.90;;;6.30;99.90;;;;;;4993649;28;20188;-71
2021/11/05 06:51:56;;;;;;;5.97;5.43;;;6.40;99.90;;;;;;4994073;28;20937;-74
2021/11/05 06:54:22;;;;;;;5.32;4.82;;;6.30;99.90;;;;;;4987394;28;20690;-71
2021/11/05 06:56:49;;;;;;;6.95;6.05;;;6.30;99.90;;;;;;4973749;28;20181;-71
2021/11/05 06:59:15;;;;;;;7.35;6.55;;;6.20;99.90;;;;;;4980766;28;20193;-70
2021/11/05 07:01:40;;;;;;;7.30;6.60;;;6.50;99.90;;;;;;4996171;28;20182;-71
2021/11/05 07:04:06;;;;;;;7.07;6.37;;;6.30;99.90;;;;;;4999676;28;20302;-71
2021/11/05 07:06:31;;;;;;;8.03;6.73;;;6.40;99.90;;;;;;4993494;28;20270;-72
2021/11/05 07:09:00;;;;;;;7.00;6.30;;;6.50;99.90;;;;;;4993564;28;20176;-72
2021/11/05 07:11:26;;;;;;;6.68;5.75;;;6.60;99.90;;;;;;4992257;28;20195;-71
2021/11/05 07:13:51;;;;;;;6.73;6.03;;;6.80;99.90;;;;;;5005635;28;20220;-72
2021/11/05 07:16:17;;;;;;;6.77;5.97;;;6.70;99.90;;;;;;4992964;28;20181;-73
2021/11/05 07:18:42;;;;;;;6.30;5.67;;;6.70;99.90;;;;;;4992786;28;20184;-73
2021/11/05 07:21:09;;;;;;;8.30;6.80;;;6.60;99.90;;;;;;4991971;28;20189;-73
2021/11/05 07:23:35;;;;;;;7.10;6.40;;;6.70;99.90;;;;;;4992685;28;20185;-72
2021/11/05 07:26:03;;;;;;;7.23;6.23;;;6.60;99.90;;;;;;4992307;28;20192;-71
2021/11/05 07:28:29;;;;;;;6.97;6.25;;;6.50;99.90;;;;;;4992260;28;20188;-72
2021/11/05 07:30:55;;;;;;;6.57;5.67;;;7.00;99.90;;;;;;4991006;28;20189;-71
2021/11/05 07:33:21;;;;;;;7.85;6.05;;;6.70;99.90;;;;;;4998816;28;20216;-71
2021/11/05 07:35:47;;;;;;;7.23;6.00;;;6.80;99.90;;;;;;4989587;28;20193;-71
2021/11/05 07:38:12;;;;;;;7.00;6.20;;;6.60;99.90;;;;;;4991867;28;20478;-71
2021/11/05 07:40:38;;;;;;;6.97;5.63;;;7.10;99.90;;;;;;4992225;28;20517;-71
2021/11/05 07:43:04;;;;;;;6.20;5.60;;;6.60;99.90;;;;;;4990549;28;20188;-71
2021/11/05 07:45:29;;;;;;;7.00;5.63;;;7.20;99.90;;;;;;4990208;28;20193;-71
2021/11/05 07:47:56;;;;;;;6.20;5.60;;;7.30;99.90;;;;;;4990253;28;20390;-71
2021/11/05 07:50:24;;;;;;;6.35;5.72;;;7.10;99.90;;;;;;4991419;28;20203;-70
2021/11/05 07:52:49;;;;;;;5.50;5.00;;;7.10;99.90;;;;;;4990368;28;20363;-70
2021/11/05 07:55:16;;;;;;;4.70;4.30;;;6.80;99.90;;;;;;4989681;28;20572;-70
2021/11/05 07:57:41;;;;;;;5.75;5.25;;;7.00;99.90;;;;;;4991107;28;20706;-72
2021/11/05 08:00:09;;;;;;;6.23;5.30;;;7.40;99.90;;;;;;4990669;28;20267;-70
2021/11/05 08:02:35;;;;;;;5.22;4.75;;;7.30;99.90;;;;;;4989742;28;20717;-72
2021/11/05 08:05:01;;;;;;;5.30;4.60;;;7.30;99.90;;;;;;4989815;28;20283;-71
2021/11/05 08:07:26;;;;;;;4.73;4.27;;;7.40;99.90;;;;;;4991588;28;20185;-70
2021/11/05 08:09:52;;;;;;;4.17;3.77;;;7.50;99.90;;;;;;4990852;28;20455;-70
2021/11/05 08:12:18;;;;;;;4.33;3.93;;;7.80;99.90;;;;;;4986343;28;20195;-71
2021/11/05 08:14:44;;;;;;;6.40;3.80;;;7.90;99.90;;;;;;4984305;28;20236;-70
2021/11/05 08:17:10;;;;;;;3.83;3.53;;;7.80;99.90;;;;;;4979305;28;20300;-71
2021/11/05 08:19:36;;;;;;;3.93;3.63;;;7.70;99.90;;;;;;4985341;28;20615;-73
2021/11/05 08:22:01;;;;;;;3.83;3.53;;;8.00;99.90;;;;;;4983155;28;20189;-71
2021/11/05 08:24:27;;;;;;;3.60;3.30;;;8.00;99.90;;;;;;4988903;28;20432;-71
2021/11/05 08:26:53;;;;;;;3.43;3.13;;;8.20;99.90;;;;;;4989696;28;20559;-73
2021/11/05 08:29:19;;;;;;;3.33;3.03;;;8.10;99.90;;;;;;4991026;28;20193;-71
2021/11/05 08:31:45;;;;;;;2.67;2.47;;;8.50;99.90;;;;;;4990466;28;20690;-71
2021/11/05 08:34:11;;;;;;;2.80;2.60;;;8.40;99.90;;;;;;4989701;28;20251;-72
2021/11/05 08:36:37;;;;;;;2.80;2.60;;;8.40;99.90;;;;;;4993011;28;20440;-73
2021/11/05 08:39:03;;;;;;;2.80;2.60;;;8.60;99.90;;;;;;4980088;28;20559;-71
2021/11/05 08:41:29;;;;;;;3.38;3.17;;;8.90;99.90;;;;;;4996628;28;20188;-72
2021/11/05 08:43:56;;;;;;;2.80;2.60;;;8.70;99.90;;;;;;4992816;28;20192;-72
2021/11/05 08:46:26;;;;;;;2.40;2.20;;;9.00;99.90;;;;;;4990030;28;20193;-70
2021/11/05 08:48:55;;;;;;;3.20;2.65;;;8.80;99.90;;;;;;4990373;28;20252;-71
2021/11/05 08:51:23;;;;;;;3.35;3.13;;;8.70;99.90;;;;;;4991211;28;20652;-71
2021/11/05 08:53:49;;;;;;;2.60;2.50;;;9.10;99.90;;;;;;4989497;28;20263;-72
2021/11/05 08:56:15;;;;;;;2.20;2.00;;;9.40;99.90;;;;;;4983788;28;20213;-71
2021/11/05 08:58:43;;;;;;;3.10;2.53;;;9.60;99.90;;;;;;4983828;28;20766;-71
2021/11/05 09:01:09;;;;;;;2.03;1.92;;;9.40;99.90;;;;;;4990589;28;20203;-71
2021/11/05 09:03:35;;;;;;;1.80;1.70;;;10.00;99.90;;;;;;4990619;28;20325;-72
2021/11/05 09:06:02;;;;;;;2.35;2.15;;;10.00;99.90;;;;;;4989743;28;20231;-71
2021/11/05 09:08:30;;;;;;;2.20;2.00;;;10.00;99.90;;;;;;4989618;28;20204;-72
2021/11/05 09:10:57;;;;;;;2.80;2.60;;;9.80;99.90;;;;;;4990229;28;20215;-73
2021/11/05 09:13:23;;;;;;;2.13;1.92;;;9.80;99.90;;;;;;4990340;28;20568;-72
2021/11/05 09:15:48;;;;;;;2.10;2.00;;;9.70;99.90;;;;;;4989178;28;20187;-72
2021/11/05 09:18:14;;;;;;;1.70;1.60;;;9.80;99.90;;;;;;4990092;28;20198;-72
2021/11/05 09:20:40;;;;;;;2.13;1.93;;;10.00;99.90;;;;;;4989341;28;20745;-73
2021/11/05 09:23:06;;;;;;;2.00;1.90;;;10.00;99.90;;;;;;4989839;28;20184;-71
2021/11/05 09:25:32;;;;;;;2.38;2.05;;;10.30;99.90;;;;;;4989508;28;20188;-71
2021/11/05 09:27:57;;;;;;;2.27;2.07;;;10.10;99.90;;;;;;4989552;28;20201;-72
2021/11/05 09:30:23;;;;;;;2.00;1.90;;;10.40;99.90;;;;;;4989842;28;20451;-72
2021/11/05 09:32:52;;;;;;;2.40;2.20;;;10.50;99.90;;;;;;4990139;28;20250;-71
2021/11/05 09:35:18;;;;;;;1.88;1.77;;;10.50;99.90;;;;;;4989761;28;20432;-71
2021/11/05 09:37:44;;;;;;;2.05;1.95;;;11.00;99.90;;;;;;4989672;28;20196;-73
2021/11/05 09:40:15;;;;;;;3.58;2.17;;;11.10;99.90;;;;;;4988802;28;20196;-71
2021/11/05 09:42:46;;;;;;;4.13;2.10;;;11.20;99.90;;;;;;4989929;28;20609;-72
2021/11/05 09:45:12;;;;;;;1.85;1.75;;;11.50;99.90;;;;;;4991577;28;20184;-72
2021/11/05 09:47:42;;;;;;;1.80;1.70;;;12.30;99.90;;;;;;4990542;28;20544;-70
2021/11/05 09:50:09;;;;;;;2.42;2.20;;;12.80;99.90;;;;;;4991169;28;20703;-72
2021/11/05 09:52:35;;;;;;;2.67;2.22;;;13.50;99.90;;;;;;4992132;28;20265;-72
2021/11/05 09:55:03;;;;;;;1.80;1.70;;;13.90;99.90;;;;;;4989205;28;20231;-72
2021/11/05 09:57:28;;;;;;;2.57;1.90;;;13.90;99.90;;;;;;4990174;28;20742;-70
2021/11/05 09:59:56;;;;;;;1.67;1.57;;;13.80;99.90;;;;;;4989322;28;20450;-71
2021/11/05 10:02:22;;;;;;;1.70;1.60;;;13.40;99.90;;;;;;4989694;28;20220;-71
2021/11/05 10:04:48;;;;;;;1.20;1.10;;;13.60;99.90;;;;;;4989200;28;20411;-71
2021/11/05 10:07:13;;;;;;;1.90;1.80;;;13.30;99.90;;;;;;4993729;28;20189;-71
2021/11/05 10:09:42;;;;;;;1.60;1.50;;;13.50;99.90;;;;;;4994556;28;20743;-71
2021/11/05 10:12:11;;;;;;;1.60;1.50;;;13.30;99.90;;;;;;4990688;28;20195;-72
2021/11/05 10:14:37;;;;;;;1.60;1.50;;;13.50;99.90;;;;;;4994437;28;20195;-72
2021/11/05 10:17:07;;;;;;;1.50;1.40;;;14.80;99.90;;;;;;4990459;28;20431;-71
2021/11/05 10:19:46;;;;;;;1.80;1.70;;;16.50;99.90;;;;;;4991996;28;20440;-71
2021/11/05 10:22:31;;;;;;;1.63;1.53;;;17.60;99.90;;;;;;4994430;28;20535;-71
2021/11/05 10:25:16;;;;;;;1.90;1.80;;;18.10;97.80;;;;;;4992115;28;20809;-72
2021/11/05 10:27:42;;;;;;;1.93;1.83;;;18.40;86.90;;;;;;4974877;28;20420;-72
2021/11/05 10:30:08;;;;;;;1.97;1.87;;;17.60;82.20;;;;;;4976858;28;20440;-71
2021/11/05 10:32:34;;;;;;;2.00;1.83;;;16.90;84.10;;;;;;4993680;28;20246;-73
2021/11/05 10:35:15;;;;;;;2.47;1.90;;;16.40;79.50;;;;;;4993955;28;20431;-71
2021/11/05 10:37:43;;;;;;;1.90;1.80;;;15.90;81.50;;;;;;4993888;28;20443;-72
2021/11/05 10:40:10;;;;;;;2.43;2.10;;;15.40;83.70;;;;;;4987750;28;20447;-71
2021/11/05 10:42:38;;;;;;;2.00;1.90;;;14.60;84.50;;;;;;4990481;28;20453;-73
2021/11/05 10:45:24;;;;;;;2.30;2.20;;;14.40;89.50;;;;;;4992873;28;20440;-71
2021/11/05 10:47:52;;;;;;;1.60;1.50;;;14.60;91.00;;;;;;4993654;28;20950;-71
2021/11/05 10:50:19;;;;;;;1.77;1.67;;;15.00;91.60;;;;;;4992968;28;20435;-71
2021/11/05 10:53:00;;;;;;;2.63;2.40;;;16.20;99.10;;;;;;4992182;28;20518;-72
2021/11/05 10:55:51;;;;;;;2.00;1.90;;;18.40;98.90;;;;;;4993013;28;20786;-71
2021/11/05 10:58:21;;;;;;;1.70;1.60;;;19.60;90.80;;;;;;4992981;28;20478;-71
2021/11/05 11:00:50;;;;;;;1.87;1.77;;;19.50;86.10;;;;;;4992399;28;20483;-70
2021/11/05 11:03:25;;;;;;;1.90;1.80;;;19.30;81.50;;;;;;4993298;28;20436;-71
2021/11/05 11:05:54;;;;;;;2.13;1.60;;;18.60;77.10;;;;;;4993657;28;20755;-74
2021/11/05 11:08:21;;;;;;;2.00;1.90;;;18.10;74.40;;;;;;4993312;28;20428;-71
2021/11/05 11:10:49;;;;;;;1.87;1.77;;;18.20;81.40;;;;;;4991707;28;20440;-71
2021/11/05 11:13:39;;;;;;;1.93;1.83;;;18.50;80.00;;;;;;4991158;28;20491;-73
2021/11/05 11:16:08;;;;;;;2.00;1.90;;;18.10;82.50;;;;;;4979822;28;20535;-72
2021/11/05 11:18:47;;;;;;;2.77;2.57;;;17.90;78.70;;;;;;4992335;28;20930;-71
2021/11/05 11:21:14;;;;;;;2.80;2.60;;;16.90;77.70;;;;;;4992162;28;20436;-71
2021/11/05 11:23:40;;;;;;;2.47;2.27;;;16.50;78.20;;;;;;4993139;28;20431;-72
2021/11/05 11:26:07;;;;;;;2.00;1.90;;;16.00;76.60;;;;;;4999962;28;20439;-69
2021/11/05 11:28:32;;;;;;;2.03;1.93;;;15.50;77.40;;;;;;4991667;28;20454;-70
2021/11/05 11:30:58;;;;;;;2.30;2.13;;;14.60;76.40;;;;;;4991961;28;20432;-71
2021/11/05 11:33:24;;;;;;;2.40;2.20;;;14.40;78.00;;;;;;4992233;28;20782;-70
2021/11/05 11:35:50;;;;;;;2.67;2.47;;;14.00;77.30;;;;;;4993189;28;20196;-71
2021/11/05 11:38:17;;;;;;;2.40;2.20;;;13.40;81.30;;;;;;4993924;28;20436;-70
2021/11/05 11:40:46;;;;;;;2.20;2.10;;;12.90;82.90;;;;;;4994191;28;20529;-70
2021/11/05 11:43:12;;;;;;;3.70;3.40;;;12.70;85.20;;;;;;4993620;28;20463;-70
2021/11/05 11:45:49;;;;;;;3.70;3.40;;;12.70;90.80;;;;;;4993949;28;20200;-69
2021/11/05 11:48:40;;;;;;;3.75;3.20;;;12.30;91.30;;;;;;4994219;28;20704;-71
2021/11/05 11:51:20;;;;;;;3.75;3.45;;;11.90;93.10;;;;;;4992597;28;20198;-69
2021/11/05 11:53:46;;;;;;;4.82;4.43;;;11.80;95.90;;;;;;4992082;28;20226;-71
2021/11/05 11:56:35;;;;;;;5.47;4.97;;;11.70;97.40;;;;;;4992422;28;20207;-70
2021/11/05 11:59:07;;;;;;;5.38;4.88;;;11.40;99.90;;;;;;4984120;28;20932;-69
2021/11/05 12:01:39;;;;;;;5.05;4.63;;;10.80;99.90;;;;;;4981095;28;20288;-70
2021/11/05 12:04:07;;;;;;;6.40;5.07;;;10.80;99.90;;;;;;4992001;28;20207;-70
2021/11/05 12:07:04;;;;;;;5.70;5.10;;;10.50;99.90;;;;;;4989129;28;20227;-69
2021/11/05 12:09:33;;;;;;;5.10;4.60;;;10.50;99.90;;;;;;4986960;28;20196;-73
2021/11/05 12:12:20;;;;;;;6.15;5.30;;;10.50;99.90;;;;;;4992404;28;20212;-70
2021/11/05 12:15:01;;;;;;;5.90;5.30;;;10.60;99.90;;;;;;4991727;28;20283;-71
2021/11/05 12:17:29;;;;;;;6.10;4.85;;;10.50;99.90;;;;;;4991530;28;20185;-72
2021/11/05 12:20:00;;;;;;;6.13;5.28;;;10.50;99.90;;;;;;4990735;28;20283;-70
2021/11/05 12:22:27;;;;;;;5.93;5.15;;;10.50;99.90;;;;;;4987613;28;20288;-70
2021/11/05 12:25:13;;;;;;;6.20;5.38;;;10.50;99.90;;;;;;4982748;28;20230;-70
2021/11/05 12:27:38;;;;;;;4.63;4.20;;;10.70;99.90;;;;;;4985203;28;20667;-71
2021/11/05 12:30:12;;;;;;;5.20;4.73;;;10.90;99.90;;;;;;4990903;28;20204;-71
2021/11/05 12:32:38;;;;;;;4.97;4.50;;;11.40;99.90;;;;;;4991182;28;20264;-71
2021/11/05 12:35:05;;;;;;;4.30;3.90;;;11.90;99.90;;;;;;4990341;28;20184;-71
2021/11/05 12:37:32;;;;;;;5.93;4.93;;;12.50;99.90;;;;;;4990991;28;20191;-72
2021/11/05 12:40:20;;;;;;;5.03;4.55;;;13.20;99.90;;;;;;4989725;28;20207;-72
2021/11/05 12:42:47;;;;;;;5.57;5.07;;;13.50;99.90;;;;;;4989493;28;20655;-71
2021/11/05 12:45:13;;;;;;;5.57;5.07;;;13.90;99.90;;;;;;4991356;28;20450;-72
2021/11/05 12:47:56;;;;;;;4.53;4.07;;;14.40;99.90;;;;;;4990805;28;20443;-71
2021/11/05 12:50:26;;;;;;;4.60;4.20;;;14.00;99.90;;;;;;4972051;28;20440;-71
2021/11/05 12:52:57;;;;;;;5.63;5.10;;;13.90;99.90;;;;;;4985374;28;20475;-72
2021/11/05 12:55:34;;;;;;;4.57;4.10;;;13.30;98.70;;;;;;4989875;28;20989;-72